Sign in

Links

Info

Aviation weather

METAR KDAB 231309Z 21005KT 7SM BKN007 BKN100 OVC250 19/19 A3003 RMK AO2 RAE1254 P0000 T01940194 $

TAF KDAB 231248Z 2313/2412 21006KT P6SM VCSH FEW010 OVC100 TEMPO 2313/2315 5SM -RA BKN008 OVC080 FM231800 23010KT P6SM VCSH SCT020 BKN040 FM232200 31007KT P6SM BKN020 FM240700 34007KT P6SM SCT025

Aviation weather from ADDS. Re-check weather before flight.

-